Nearby METAR Reports

 

KBGR - Bangor, Maine, USA
Distance from station: E 5mi, 8km
Updated: Thu, 16-Aug-2018 6:53am EDT
Mist, Partly cloudy
Mist, Partly cloudy
 Wind from WNW
Wind: WNW 5 mph , 7 km/h
Temperature: 66°F , 19°C
Dew Point: 66°F , 19°C
Humidity: 100%
Barometer: 29.92 inHg , 1013.2 hPa
Summary: Mist
Clouds: Partly cloudy
Visibility: 5 miles , 8 km
Cloud details: Few Clouds 2500 ft
Few Clouds 10000 ft
Partly cloudy 20000 ft
2018/08/16 10:53 KBGR 161053Z 30004KT 5SM BR FEW025 FEW100 SCT200 19/19 A2992 RMK AO2 SLP128 T01940189
KBHB - Bar Harbor, Maine, USA
Distance from station: SE 37mi, 59km
Updated: Thu, 16-Aug-2018 6:56am EDT
Clear
Clear
 Wind from calm
Wind: Calm
Temperature: 64°F , 18°C
Dew Point: 64°F , 18°C
Humidity: 100%
Barometer: 29.92 inHg , 1013.2 hPa
Clouds: Clear
Visibility: 10 miles , 16 km
2018/08/16 10:56 KBHB 161056Z AUTO 00000KT 10SM CLR 18/18 A2992 RMK AO2 SLP133 T01830183 $
 
KWVL - Waterville, Maine, USA
Distance from station: WSW 42mi, 68km
Updated: Thu, 16-Aug-2018 6:56am EDT
Clear
Clear
 Wind from calm
Wind: Calm
Temperature: 66°F , 19°C
Dew Point: 64°F , 18°C
Humidity: 94%
Barometer: 29.90 inHg , 1012.5 hPa
Clouds: Clear
Visibility: 9 miles , 14 km
2018/08/16 10:56 KWVL 161056Z AUTO 00000KT 9SM CLR 19/18 A2990 RMK AO2 SLP151 T01890183
KRKD - Rockland/Knox, Maine, USA
Distance from station: S 52mi, 84km
Updated: Thu, 16-Aug-2018 6:56am EDT
Mist, Overcast
Mist, Overcast
 Wind from WNW
Wind: WNW 6 mph , 9 km/h
Temperature: 66°F , 19°C
Dew Point: 66°F , 19°C
Humidity: 100%
Barometer: 29.92 inHg , 1013.2 hPa
Summary: Mist
Clouds: Overcast
Visibility: 4 miles , 6 km
Cloud details: Overcast 9000 ft
2018/08/16 10:56 KRKD 161056Z AUTO 29005KT 4SM BR OVC090 19/19 A2992 RMK AO2 SLP133 T01890189
 
KAUG - Augusta, Maine, USA
Distance from station: SW 55mi, 89km
Updated: Thu, 16-Aug-2018 7:53am EDT
Overcast
Overcast
 Wind from WNW
Wind: WNW 6 mph , 9 km/h
Temperature: 72°F , 22°C
Dew Point: 64°F , 18°C
Humidity: 78%
Barometer: 29.96 inHg , 1014.6 hPa
Clouds: Overcast
Visibility: 10 miles , 16 km
Cloud details: Mostly cloudy 7000 ft
Overcast 9000 ft
2018/08/16 11:53 KAUG 161153Z AUTO 29005KT 10SM BKN070 OVC090 22/18 A2996 RMK AO2 SLP143 T02170178 10222 20194 52015
KGNR - Greenville, Maine, USA
Distance from station: NW 55mi, 89km
Updated: Thu, 16-Aug-2018 6:56am EDT

 Wind from NNW
Wind: NNW 7 mph , 11 km/h
Temperature: 61°F , 16°C
Dew Point: 59°F , 15°C
Humidity: 94%
Barometer: 29.95 inHg , 1014.2 hPa
2018/08/16 10:56 KGNR 161056Z AUTO 33006KT 16/15 A2995 RMK AO1 SLP138 T01610150
 
KMLT - Millinocket, Maine, USA
Distance from station: N 59mi, 95km
Updated: Thu, 16-Aug-2018 7:53am EDT
Clear
Clear
 Wind from NW
Wind: NW 6 mph , 9 km/h
Temperature: 66°F , 19°C
Dew Point: 57°F , 14°C
Humidity: 73%
Barometer: 29.96 inHg , 1014.6 hPa
Clouds: Clear
Visibility: 10 miles , 16 km
2018/08/16 11:53 KMLT 161153Z AUTO 31005KT 10SM CLR 19/14 A2996 RMK AO2 SLP148 70002 T01890144 10217 20167 53018 TSNO
KIWI - Wiscasset, Maine, USA
Distance from station: SW 70mi, 113km
Updated: Thu, 16-Aug-2018 7:53am EDT
Mostly cloudy
Mostly cloudy
 Wind from calm
Wind: Calm
Temperature: 72°F , 22°C
Dew Point: 70°F , 21°C
Humidity: 94%
Barometer: 29.96 inHg , 1014.6 hPa
Clouds: Mostly cloudy
Visibility: 10 miles , 16 km
Cloud details: Mostly cloudy 7000 ft
Mostly cloudy 9000 ft
2018/08/16 11:53 KIWI 161153Z AUTO 00000KT 10SM BKN070 BKN090 22/21 A2996 RMK AO2 SLP143 T02220211 10222 20189 51016
 
CWSS - St. Stephen (mar, New Brunswick, Canada
Distance from station: ENE 86mi, 138km
Updated: Thu, 16-Aug-2018 7:00am EDT

 Wind from W
Wind: W 2 mph , 4 km/h
Temperature: 66°F , 19°C
Dew Point: 64°F , 18°C
Humidity: 94%
2018/08/16 11:00 CWSS 161100Z AUTO 28002KT 19/18 RMK AO1 3016 SLP125 T01890178 50009
KLEW - Auburn/Lewiston, Maine, USA
Distance from station: SW 86mi, 138km
Updated: Thu, 16-Aug-2018 6:56am EDT
Clear
Clear
 Wind from calm
Wind: Calm
Temperature: 70°F , 21°C
Dew Point: 66°F , 19°C
Humidity: 88%
Barometer: 29.95 inHg , 1014.2 hPa
Clouds: Clear
Visibility: 10 miles , 16 km
2018/08/16 10:56 KLEW 161056Z AUTO 00000KT 10SM CLR 21/19 A2995 RMK AO2 SLP152 T02060194
 
KHUL - Houlton, Maine, USA
Distance from station: NNE 105mi, 169km
Updated: Thu, 16-Aug-2018 7:53am EDT
Mostly cloudy
Mostly cloudy
 Wind from calm
Wind: Calm
Temperature: 61°F , 16°C
Dew Point: 57°F , 14°C
Humidity: 88%
Barometer: 29.92 inHg , 1013.2 hPa
Clouds: Mostly cloudy
Visibility: 10 miles , 16 km
Cloud details: Mostly cloudy 5000 ft
2018/08/16 11:53 KHUL 161153Z AUTO 00000KT 10SM BKN050 16/14 A2992 RMK AO2 SLP133 70028 T
KPWM - Portland, Maine, USA
Distance from station: SW 105mi, 170km
Updated: Thu, 16-Aug-2018 7:51am EDT
Mostly cloudy
Mostly cloudy
 Wind from W
Wind: W 3 mph , 6 km/h
Temperature: 75°F , 24°C
Dew Point: 68°F , 20°C
Humidity: 78%
Barometer: 29.96 inHg , 1014.6 hPa
Clouds: Mostly cloudy
Visibility: 10 miles , 16 km
Cloud details: Partly cloudy 7000 ft
Mostly cloudy 25000 ft
2018/08/16 11:51 KPWM 161151Z 26003KT 10SM SCT070 BKN250 24/20 A2996 RMK AO2 SLP145 T02390200 10239 20206 51018
 
KBML - Berlin, New Hampshire, USA
Distance from station: W 113mi, 181km
Updated: Thu, 16-Aug-2018 7:52am EDT
Overcast
Overcast
 Wind from calm
Wind: Calm
Temperature: 68°F , 20°C
Dew Point: 66°F , 19°C
Humidity: 94%
Barometer: 30.00 inHg , 1015.9 hPa
Clouds: Overcast
Visibility: 8 miles , 13 km
Cloud details: Few Clouds 3400 ft
Overcast 5500 ft
2018/08/16 11:52 KBML 161152Z AUTO 00000KT 8SM FEW034 OVC055 20/19 A3000 RMK AO2 SLP156 70019 T02000189 10200 20167 53009
KIZG - Fryeburg, Maine, USA
Distance from station: WSW 116mi, 186km
Updated: Thu, 16-Aug-2018 6:54am EDT
Mostly cloudy
Mostly cloudy
 Wind from calm
Wind: Calm
Temperature: 68°F , 20°C
Dew Point: 68°F , 20°C
Humidity: 100%
Barometer: 29.96 inHg , 1014.6 hPa
Clouds: Mostly cloudy
Visibility: 10 miles , 16 km
Cloud details: Partly cloudy 5500 ft
Mostly cloudy 7000 ft
Mostly cloudy 8000 ft
2018/08/16 10:54 KIZG 161054Z AUTO 00000KT 10SM SCT055 BKN070 BKN080 20/20 A2996 RMK AO2 SLP143 T02000200
 
CWPE - Point Lepreau, New Brunswick, Canada
Distance from station: E 121mi, 195km
Updated: Thu, 16-Aug-2018 7:00am EDT

 Wind from WNW
Wind: WNW 6 mph , 9 km/h
Temperature: 61°F , 16°C
Dew Point: 61°F , 16°C
Humidity: 100%
2018/08/16 11:00 CWPE 161100Z AUTO 30005KT 16/16 RMK AO1 SLP114 T01550163 53009
KMWN - Mount Washington, New Hampshire, USA
Distance from station: WSW 123mi, 198km
Updated: Thu, 16-Aug-2018 6:48am EDT
Rain, Fog, Overcast
Rain, Fog, Overcast
 Wind from W
Wind: W 32 mph , 52 km/h, Gust: 39 mph , 63 km/h
Temperature: 52°F , 11°C
Dew Point: 52°F , 11°C
Humidity: 100%
Summary: Rain, Fog
Clouds: Overcast
Visibility: 1/16 mile , 0.1 km
Cloud details: Overcast 100 ft
2018/08/16 10:48 KMWN 161048Z 28028G34KT 1/16SM RA FG VV001 11/11 RMK RAB40
 
KPQI - Presque Isle, Maine, USA
Distance from station: ESE 136mi, 219km
Updated: Thu, 16-Aug-2018 6:56am EDT
Clear
Clear
 Wind from W
Wind: W 5 mph , 7 km/h
Temperature: 57°F , 14°C
Dew Point: 54°F , 12°C
Humidity: 88%
Barometer: 29.93 inHg , 1013.5 hPa
Clouds: Clear
Visibility: 10 miles , 16 km
2018/08/16 10:56 KPQI 161056Z AUTO 26004KT 10SM CLR 14/12 A2993 RMK AO2 SLP174 T01440122
KCAR - Caribou, Maine, USA
Distance from station: NNE 148mi, 238km
Updated: Thu, 16-Aug-2018 6:54am EDT
Clear
Clear
 Wind from NNW
Wind: NNW 6 mph , 9 km/h
Temperature: 61°F , 16°C
Dew Point: 54°F , 12°C
Humidity: 77%
Barometer: 29.91 inHg , 1012.9 hPa
Clouds: Clear
Visibility: 10 miles , 16 km
2018/08/16 10:54 KCAR 161054Z AUTO 33005KT 10SM CLR 16/12 A2991 RMK AO2 SLP131 T01560117